Terminal Aerodrome Forecast
Issued by NWS

Home | Current Version | Previous Version | Text Only | Print | Product List | Glossary On
Versions: 1 2 3 4 5 6 7 8 9 10 11 12 13 14 15 16 17 18
000
FTUS44 KLUB 281700
TAFCDS
TAF
KCDS 281725Z 2818/2918 07011G17KT P6SM VCTS SCT040CB BKN100
     FM282000 11015KT P6SM BKN070 BKN150
     FM290900 12010KT P6SM OVC100 PROB30 2909/2915 -TSRA BKN040CB=

USA.gov is the U.S. government's official web portal to all federal, state and local government web resources and services.